createdAt,value
2018-10-21T00:01:21.340Z,18.03
2018-10-21T00:03:48.985Z,18.02
2018-10-21T00:06:16.575Z,18.01
2018-10-21T00:08:44.291Z,18.02
2018-10-21T00:11:11.907Z,18.03
2018-10-21T00:13:39.598Z,18.02
2018-10-21T00:16:07.218Z,18.01
2018-10-21T00:18:34.855Z,18.00
2018-10-21T00:21:02.954Z,17.98
2018-10-21T00:23:30.560Z,17.98
2018-10-21T00:25:58.273Z,18.00
2018-10-21T00:28:25.926Z,17.98
2018-10-21T00:30:53.567Z,17.99
2018-10-21T00:33:21.176Z,18.00
2018-10-21T00:35:48.855Z,17.99
2018-10-21T00:38:16.478Z,17.98
2018-10-21T00:40:44.148Z,17.98
2018-10-21T00:43:11.813Z,17.99
2018-10-21T00:45:39.468Z,17.98
2018-10-21T00:48:07.114Z,17.95
2018-10-21T00:50:34.721Z,17.95
2018-10-21T00:53:02.391Z,17.94
2018-10-21T00:55:29.988Z,17.94
2018-10-21T00:57:57.607Z,17.94
2018-10-21T01:00:25.269Z,17.94
2018-10-21T01:02:52.863Z,17.94
2018-10-21T01:05:20.464Z,17.94
2018-10-21T01:07:48.067Z,17.92
2018-10-21T01:10:15.668Z,17.93
2018-10-21T01:12:43.332Z,17.92
2018-10-21T01:15:12.186Z,17.92
2018-10-21T01:17:39.809Z,17.92
2018-10-21T01:20:09.557Z,17.93
2018-10-21T01:22:37.285Z,17.92
2018-10-21T01:25:05.555Z,17.93
2018-10-21T01:27:33.217Z,17.92
2018-10-21T01:30:00.844Z,17.92
2018-10-21T01:32:28.492Z,17.91
2018-10-21T01:34:56.288Z,17.88
2018-10-21T01:37:23.999Z,17.89
2018-10-21T01:40:57.869Z,17.90
2018-10-21T01:43:26.757Z,17.91
2018-10-21T01:45:54.475Z,17.90
2018-10-21T01:48:23.226Z,17.88
2018-10-21T01:50:50.891Z,17.88
2018-10-21T01:53:19.129Z,17.87
2018-10-21T01:55:46.850Z,17.87
2018-10-21T01:58:14.447Z,17.88
2018-10-21T02:00:42.468Z,17.88
2018-10-21T02:03:10.220Z,17.89
2018-10-21T02:05:38.368Z,17.88
2018-10-21T02:08:06.131Z,17.87
2018-10-21T02:10:33.752Z,17.85
2018-10-21T02:13:01.561Z,17.86
2018-10-21T02:15:29.193Z,17.87
2018-10-21T02:17:56.871Z,17.88
2018-10-21T02:20:24.930Z,17.89
2018-10-21T02:22:52.893Z,17.88
2018-10-21T02:25:20.518Z,17.87
2018-10-21T02:27:48.976Z,17.88
2018-10-21T02:30:20.850Z,17.87
2018-10-21T02:32:49.322Z,17.86
2018-10-21T02:35:17.396Z,17.85
2018-10-21T02:37:45.208Z,17.85
2018-10-21T02:41:26.964Z,17.85
2018-10-21T02:43:54.581Z,17.82
2018-10-21T02:46:23.105Z,17.86
2018-10-21T02:48:52.284Z,17.86
2018-10-21T02:51:19.939Z,17.84
2018-10-21T02:53:47.547Z,17.85
2018-10-21T02:56:15.145Z,17.84
2018-10-21T02:58:42.829Z,17.83
2018-10-21T03:01:10.468Z,17.83
2018-10-21T03:03:38.688Z,17.84
2018-10-21T03:06:06.428Z,17.85
2018-10-21T03:08:34.070Z,17.83
2018-10-21T03:11:02.032Z,17.83
2018-10-21T03:13:30.187Z,17.80
2018-10-21T03:15:57.805Z,17.79
2018-10-21T03:18:25.467Z,17.80
2018-10-21T03:20:53.415Z,17.80
2018-10-21T03:23:21.103Z,17.80
2018-10-21T03:25:48.737Z,17.80
2018-10-21T03:28:16.626Z,17.81
2018-10-21T03:30:44.285Z,17.81
2018-10-21T03:33:12.072Z,17.81
2018-10-21T03:35:39.588Z,17.81
2018-10-21T03:38:07.260Z,17.80
2018-10-21T03:40:34.868Z,17.80
2018-10-21T03:43:02.567Z,17.79
2018-10-21T03:45:30.226Z,17.80
2018-10-21T03:47:57.839Z,17.82
2018-10-21T03:50:26.501Z,17.79
2018-10-21T03:52:54.228Z,17.81
2018-10-21T03:55:22.010Z,17.78
2018-10-21T03:57:49.600Z,17.78
2018-10-21T04:00:17.266Z,17.78
2018-10-21T04:02:44.942Z,17.77
2018-10-21T04:05:12.844Z,17.76
2018-10-21T04:07:40.808Z,17.75
2018-10-21T04:10:08.493Z,17.75
2018-10-21T04:12:36.114Z,17.74
2018-10-21T04:15:03.731Z,17.76
2018-10-21T04:17:31.428Z,17.76
2018-10-21T04:19:59.125Z,17.74
2018-10-21T04:22:26.704Z,17.78
2018-10-21T04:24:54.357Z,17.78
2018-10-21T04:27:22.007Z,17.76
2018-10-21T04:29:49.735Z,17.75
2018-10-21T04:32:17.361Z,17.77
2018-10-21T04:34:44.960Z,17.76
2018-10-21T04:37:23.742Z,17.77
2018-10-21T04:40:05.195Z,17.76
2018-10-21T04:42:32.821Z,17.73
2018-10-21T04:45:01.032Z,17.73
2018-10-21T04:47:29.046Z,17.73
2018-10-21T04:50:03.385Z,17.75
2018-10-21T04:52:31.833Z,17.73
2018-10-21T04:55:05.173Z,17.70
2018-10-21T04:57:32.829Z,17.74
2018-10-21T05:00:00.468Z,17.75
2018-10-21T05:02:29.040Z,17.75
2018-10-21T05:04:56.665Z,17.75
2018-10-21T05:07:24.413Z,17.75
2018-10-21T05:09:52.033Z,17.75
2018-10-21T05:12:19.656Z,17.74
2018-10-21T05:14:47.285Z,17.73
2018-10-21T05:17:14.923Z,17.73
2018-10-21T05:19:42.584Z,17.74
2018-10-21T05:22:10.272Z,17.73
2018-10-21T05:24:37.878Z,17.73
2018-10-21T05:27:06.081Z,17.72
2018-10-21T05:29:33.756Z,17.73
2018-10-21T05:32:01.329Z,17.73
2018-10-21T05:34:29.036Z,17.72
2018-10-21T05:36:56.640Z,17.72
2018-10-21T05:39:24.364Z,17.71
2018-10-21T05:41:52.000Z,17.73
2018-10-21T05:44:19.667Z,17.72
2018-10-21T05:46:48.633Z,17.74
2018-10-21T05:49:16.277Z,17.73
2018-10-21T05:51:45.258Z,17.73
2018-10-21T05:54:14.043Z,17.72
2018-10-21T05:56:43.973Z,17.71
2018-10-21T05:59:11.873Z,17.71
2018-10-21T06:01:40.171Z,17.71
2018-10-21T06:04:08.778Z,17.73
2018-10-21T06:06:36.435Z,17.73
2018-10-21T06:09:04.936Z,17.73
2018-10-21T06:11:32.569Z,17.74
2018-10-21T06:14:00.287Z,17.75
2018-10-21T06:16:29.676Z,17.74
2018-10-21T06:19:02.116Z,17.73
2018-10-21T06:21:29.709Z,17.73
2018-10-21T06:23:57.392Z,17.74
2018-10-21T06:26:25.037Z,17.76
2018-10-21T06:28:52.721Z,17.77
2018-10-21T06:31:20.373Z,17.73
2018-10-21T06:33:48.023Z,17.73
2018-10-21T06:36:15.668Z,17.75
2018-10-21T06:38:43.302Z,17.76
2018-10-21T06:41:10.930Z,17.76
2018-10-21T06:43:38.532Z,17.77
2018-10-21T06:46:06.272Z,17.76
2018-10-21T06:48:33.999Z,17.76
2018-10-21T06:51:01.743Z,17.77
2018-10-21T06:53:29.358Z,17.75
2018-10-21T06:55:56.986Z,17.76
2018-10-21T06:58:24.660Z,17.80
2018-10-21T07:00:52.281Z,17.79
2018-10-21T07:03:19.971Z,17.79
2018-10-21T07:06:20.261Z,17.80
2018-10-21T07:08:48.655Z,17.77
2018-10-21T07:11:16.281Z,17.80
2018-10-21T07:13:43.984Z,17.81
2018-10-21T07:16:12.255Z,17.83
2018-10-21T07:18:40.462Z,17.84
2018-10-21T07:21:08.160Z,17.84
2018-10-21T07:23:35.824Z,17.85
2018-10-21T07:26:03.510Z,17.86
2018-10-21T07:28:31.304Z,17.86
2018-10-21T07:30:59.080Z,17.88
2018-10-21T07:33:26.803Z,17.87
2018-10-21T07:35:54.456Z,17.88
2018-10-21T07:38:22.133Z,17.89
2018-10-21T07:40:49.792Z,17.91
2018-10-21T07:43:17.526Z,17.91
2018-10-21T07:45:45.194Z,17.91
2018-10-21T07:48:12.798Z,17.93
2018-10-21T07:50:40.428Z,17.95
2018-10-21T07:53:08.031Z,17.95
2018-10-21T07:55:35.689Z,17.99
2018-10-21T07:58:03.355Z,18.00
2018-10-21T08:00:31.016Z,18.00
2018-10-21T08:02:58.667Z,18.01
2018-10-21T08:06:37.567Z,18.02
2018-10-21T08:09:07.792Z,18.05
2018-10-21T08:11:35.413Z,18.07
2018-10-21T08:14:03.066Z,18.08
2018-10-21T08:16:30.712Z,18.08
2018-10-21T08:18:58.378Z,18.08
2018-10-21T08:21:26.012Z,18.10
2018-10-21T08:23:53.654Z,18.10
2018-10-21T08:26:21.267Z,18.13
2018-10-21T08:28:48.899Z,18.12
2018-10-21T08:31:16.614Z,18.14
2018-10-21T08:33:44.268Z,18.14
2018-10-21T08:36:11.922Z,18.14
2018-10-21T08:38:39.515Z,18.16
2018-10-21T08:41:07.175Z,18.16
2018-10-21T08:43:34.802Z,18.18
2018-10-21T08:46:02.458Z,18.20
2018-10-21T08:48:30.104Z,18.21
2018-10-21T08:50:57.759Z,18.22
2018-10-21T08:53:25.520Z,18.23
2018-10-21T08:55:53.241Z,18.25
2018-10-21T08:58:20.896Z,18.26
2018-10-21T09:00:48.573Z,18.29
2018-10-21T09:03:16.225Z,18.31
2018-10-21T09:05:43.872Z,18.31
2018-10-21T09:08:11.520Z,18.34
2018-10-21T09:10:39.203Z,18.35
2018-10-21T09:13:06.920Z,18.36
2018-10-21T09:15:34.605Z,18.38
2018-10-21T09:18:02.209Z,18.38
2018-10-21T09:20:29.840Z,18.39
2018-10-21T09:22:57.534Z,18.41
2018-10-21T09:25:25.153Z,18.44
2018-10-21T09:27:52.807Z,18.46
2018-10-21T09:30:20.429Z,18.48
2018-10-21T09:32:48.141Z,18.51
2018-10-21T09:35:17.129Z,18.53
2018-10-21T09:37:44.875Z,18.54
2018-10-21T09:40:16.111Z,18.55
2018-10-21T09:42:44.029Z,18.52
2018-10-21T09:45:13.233Z,18.53
2018-10-21T09:47:41.049Z,18.52
2018-10-21T09:50:08.683Z,18.53
2018-10-21T09:52:36.386Z,18.53
2018-10-21T09:55:04.117Z,18.53
2018-10-21T09:57:31.722Z,18.56
2018-10-21T09:59:59.331Z,18.59
2018-10-21T10:02:32.460Z,18.60
2018-10-21T10:05:00.146Z,18.62
2018-10-21T10:07:27.799Z,18.62
2018-10-21T10:09:55.479Z,18.63
2018-10-21T10:12:23.121Z,18.64
2018-10-21T10:14:50.796Z,18.67
2018-10-21T10:17:18.433Z,18.66
2018-10-21T10:19:46.118Z,18.67
2018-10-21T10:22:13.862Z,18.67
2018-10-21T10:24:41.461Z,18.67
2018-10-21T10:27:09.073Z,18.70
2018-10-21T10:29:36.647Z,18.71
2018-10-21T10:32:04.348Z,18.73
2018-10-21T10:34:31.970Z,18.76
2018-10-21T10:36:59.766Z,18.78
2018-10-21T10:39:27.413Z,18.79
2018-10-21T10:41:55.133Z,18.81
2018-10-21T10:44:22.691Z,18.82
2018-10-21T10:46:50.364Z,18.84
2018-10-21T10:49:18.077Z,18.85
2018-10-21T10:51:45.642Z,18.87
2018-10-21T10:54:13.332Z,18.88
2018-10-21T10:56:40.924Z,18.90
2018-10-21T10:59:09.480Z,18.90
2018-10-21T11:01:37.090Z,18.90
2018-10-21T11:04:04.735Z,18.92
2018-10-21T11:06:32.384Z,18.93
2018-10-21T11:09:00.030Z,18.93
2018-10-21T11:11:27.724Z,18.94
2018-10-21T11:13:55.383Z,18.95
2018-10-21T11:16:23.016Z,18.96
2018-10-21T11:18:50.707Z,18.97
2018-10-21T11:21:18.360Z,18.97
2018-10-21T11:23:45.992Z,19.00
2018-10-21T11:26:13.623Z,19.01
2018-10-21T11:28:41.313Z,19.00
2018-10-21T11:31:08.989Z,19.01
2018-10-21T11:33:36.682Z,19.00
2018-10-21T11:36:05.477Z,19.00
2018-10-21T11:38:33.092Z,19.00
2018-10-21T11:41:00.739Z,19.00
2018-10-21T11:43:28.452Z,19.01
2018-10-21T11:45:56.201Z,19.00
2018-10-21T11:48:23.873Z,19.00
2018-10-21T11:50:51.543Z,18.99
2018-10-21T11:53:19.186Z,18.98
2018-10-21T11:55:46.932Z,18.98
2018-10-21T11:58:15.448Z,18.98
2018-10-21T12:00:44.245Z,18.98
2018-10-21T12:03:12.347Z,19.00
2018-10-21T12:05:40.837Z,19.00
2018-10-21T12:08:08.581Z,18.99
2018-10-21T12:10:36.180Z,18.99
2018-10-21T12:13:04.297Z,19.00
2018-10-21T12:15:31.917Z,18.99
2018-10-21T12:17:59.592Z,18.99
2018-10-21T12:20:27.207Z,19.00
2018-10-21T12:22:54.910Z,19.00
2018-10-21T12:25:22.691Z,19.01
2018-10-21T12:27:50.284Z,19.01
2018-10-21T12:30:17.887Z,19.00
2018-10-21T12:32:45.481Z,19.01
2018-10-21T12:35:13.245Z,19.02
2018-10-21T12:37:41.250Z,19.03
2018-10-21T12:40:09.698Z,19.04
2018-10-21T12:42:37.578Z,19.05
2018-10-21T12:45:06.803Z,19.08
2018-10-21T12:47:34.449Z,19.09
2018-10-21T12:50:02.101Z,19.13
2018-10-21T12:52:29.744Z,19.15
2018-10-21T12:54:57.436Z,19.16
2018-10-21T12:57:25.090Z,19.17
2018-10-21T12:59:52.719Z,19.16
2018-10-21T13:02:20.442Z,19.15
2018-10-21T13:04:47.993Z,19.16
2018-10-21T13:07:15.713Z,19.18
2018-10-21T13:09:43.465Z,19.19
2018-10-21T13:12:11.114Z,19.20
2018-10-21T13:14:38.725Z,19.21
2018-10-21T13:17:06.339Z,19.22
2018-10-21T13:19:34.004Z,19.21
2018-10-21T13:22:01.859Z,19.23
2018-10-21T13:24:29.420Z,19.30
2018-10-21T13:26:57.076Z,19.39
2018-10-21T13:29:24.700Z,19.46
2018-10-21T13:31:52.381Z,19.47
2018-10-21T13:34:20.056Z,19.51
2018-10-21T13:36:47.684Z,19.53
2018-10-21T13:39:15.315Z,19.52
2018-10-21T13:41:44.213Z,19.52
2018-10-21T13:44:11.887Z,19.53
2018-10-21T13:46:40.300Z,19.51
2018-10-21T13:49:07.990Z,19.49
2018-10-21T13:51:35.976Z,19.46
2018-10-21T13:54:03.607Z,19.41
2018-10-21T13:56:31.324Z,19.37
2018-10-21T13:58:58.996Z,19.34
2018-10-21T14:01:27.104Z,19.32
2018-10-21T14:03:54.704Z,19.31
2018-10-21T14:06:22.382Z,19.29
2018-10-21T14:08:49.990Z,19.28
2018-10-21T14:11:17.632Z,19.24
2018-10-21T14:13:45.231Z,19.26
2018-10-21T14:16:12.993Z,19.24
2018-10-21T14:18:40.594Z,19.24
2018-10-21T14:21:08.262Z,19.22
2018-10-21T14:23:35.921Z,19.20
2018-10-21T14:26:03.618Z,19.20
2018-10-21T14:28:31.315Z,19.18
2018-10-21T14:30:59.002Z,19.16
2018-10-21T14:33:26.590Z,19.13
2018-10-21T14:35:54.257Z,19.13
2018-10-21T14:38:21.877Z,19.12
2018-10-21T14:40:49.503Z,19.11
2018-10-21T14:43:17.164Z,19.10
2018-10-21T14:45:44.849Z,19.10
2018-10-21T14:48:12.495Z,19.08
2018-10-21T14:50:40.119Z,19.07
2018-10-21T14:53:07.754Z,19.06
2018-10-21T14:55:35.360Z,19.06
2018-10-21T14:58:02.989Z,19.04
2018-10-21T15:00:30.676Z,19.04
2018-10-21T15:02:58.260Z,19.03
2018-10-21T15:05:25.900Z,19.02
2018-10-21T15:07:53.601Z,19.02
2018-10-21T15:10:21.342Z,19.00
2018-10-21T15:12:48.929Z,18.99
2018-10-21T15:15:16.546Z,18.98
2018-10-21T15:17:44.216Z,18.96
2018-10-21T15:20:13.081Z,18.94
2018-10-21T15:22:40.749Z,18.93
2018-10-21T15:25:09.780Z,18.90
2018-10-21T15:27:37.384Z,18.89
2018-10-21T15:30:06.637Z,18.88
2018-10-21T15:32:34.295Z,18.87
2018-10-21T15:35:02.241Z,18.86
2018-10-21T15:37:29.829Z,18.86
2018-10-21T15:39:57.553Z,18.85
2018-10-21T15:42:25.186Z,18.84
2018-10-21T15:44:52.840Z,18.83
2018-10-21T15:47:20.450Z,18.82
2018-10-21T15:49:48.151Z,18.81
2018-10-21T15:52:15.854Z,18.80
2018-10-21T15:54:43.468Z,18.80
2018-10-21T15:57:11.116Z,18.79
2018-10-21T15:59:38.732Z,18.78
2018-10-21T16:02:06.491Z,18.78
2018-10-21T16:04:34.096Z,18.76
2018-10-21T16:07:01.735Z,18.75
2018-10-21T16:09:29.379Z,18.74
2018-10-21T16:11:57.022Z,18.74
2018-10-21T16:14:24.665Z,18.72
2018-10-21T16:16:52.233Z,18.73
2018-10-21T16:19:19.828Z,18.72
2018-10-21T16:21:47.507Z,18.72
2018-10-21T16:24:15.111Z,18.72
2018-10-21T16:26:42.700Z,18.70
2018-10-21T16:29:10.304Z,18.70
2018-10-21T16:31:37.963Z,18.69
2018-10-21T16:34:05.579Z,18.68
2018-10-21T16:36:33.207Z,18.68
2018-10-21T16:39:00.844Z,18.67
2018-10-21T16:41:32.033Z,18.67
2018-10-21T16:43:59.755Z,18.66
2018-10-21T16:46:34.001Z,18.65
2018-10-21T16:49:01.644Z,18.66
2018-10-21T16:51:29.424Z,18.63
2018-10-21T16:53:56.981Z,18.62
2018-10-21T16:56:24.673Z,18.63
2018-10-21T16:58:52.278Z,18.63
2018-10-21T17:01:19.960Z,18.62
2018-10-21T17:03:47.604Z,18.60
2018-10-21T17:06:15.261Z,18.60
2018-10-21T17:08:42.868Z,18.60
2018-10-21T17:11:10.535Z,18.59
2018-10-21T17:13:38.196Z,18.60
2018-10-21T17:16:06.636Z,18.59
2018-10-21T17:18:34.269Z,18.58
2018-10-21T17:21:02.200Z,18.57
2018-10-21T17:23:29.856Z,18.57
2018-10-21T17:25:57.514Z,18.56
2018-10-21T17:28:25.211Z,18.55
2018-10-21T17:30:52.826Z,18.55
2018-10-21T17:33:20.459Z,18.53
2018-10-21T17:35:48.109Z,18.53
2018-10-21T17:38:15.709Z,18.51
2018-10-21T17:40:43.403Z,18.51
2018-10-21T17:43:10.988Z,18.50
2018-10-21T17:45:38.578Z,18.49
2018-10-21T17:48:06.200Z,18.48
2018-10-21T17:50:33.834Z,18.47
2018-10-21T17:53:01.444Z,18.46
2018-10-21T17:55:29.118Z,18.48
2018-10-21T17:57:56.713Z,18.48
2018-10-21T18:00:24.360Z,18.46
2018-10-21T18:02:51.987Z,18.46
2018-10-21T18:05:19.633Z,18.45
2018-10-21T18:07:47.231Z,18.45
2018-10-21T18:10:14.903Z,18.44
2018-10-21T18:12:42.480Z,18.42
2018-10-21T18:15:10.685Z,18.43
2018-10-21T18:17:39.006Z,18.42
2018-10-21T18:20:07.653Z,18.42
2018-10-21T18:22:35.272Z,18.40
2018-10-21T18:25:02.894Z,18.40
2018-10-21T18:27:30.566Z,18.40
2018-10-21T18:29:58.201Z,18.38
2018-10-21T18:32:25.855Z,18.38
2018-10-21T18:34:53.441Z,18.37
2018-10-21T18:37:21.090Z,18.36
2018-10-21T18:39:48.705Z,18.35
2018-10-21T18:42:16.301Z,18.34
2018-10-21T18:44:43.936Z,18.34
2018-10-21T18:47:11.499Z,18.33
2018-10-21T18:49:39.176Z,18.32
2018-10-21T18:52:07.025Z,18.32
2018-10-21T18:54:34.648Z,18.32
2018-10-21T18:57:02.263Z,18.32
2018-10-21T18:59:30.023Z,18.31
2018-10-21T19:01:57.680Z,18.30
2018-10-21T19:04:25.360Z,18.30
2018-10-21T19:06:52.952Z,18.28
2018-10-21T19:09:20.607Z,18.29
2018-10-21T19:11:48.204Z,18.26
2018-10-21T19:14:15.830Z,18.29
2018-10-21T19:16:43.461Z,18.30
2018-10-21T19:19:11.156Z,18.28
2018-10-21T19:21:38.648Z,18.29
2018-10-21T19:24:06.257Z,18.29
2018-10-21T19:26:33.916Z,18.29
2018-10-21T19:29:01.483Z,18.29
2018-10-21T19:31:29.131Z,18.27
2018-10-21T19:33:56.816Z,18.27
2018-10-21T19:36:24.446Z,18.27
2018-10-21T19:38:52.068Z,18.26
2018-10-21T19:41:19.666Z,18.27
2018-10-21T19:43:47.283Z,18.28
2018-10-21T19:46:14.990Z,18.26
2018-10-21T19:48:42.580Z,18.26
2018-10-21T19:51:10.228Z,18.27
2018-10-21T19:53:37.893Z,18.26
2018-10-21T19:56:05.509Z,18.26
2018-10-21T19:58:33.221Z,18.27
2018-10-21T20:01:00.831Z,18.26
2018-10-21T20:03:28.552Z,18.26
2018-10-21T20:05:56.170Z,18.28
2018-10-21T20:08:23.792Z,18.25
2018-10-21T20:10:51.423Z,18.26
2018-10-21T20:13:19.137Z,18.27
2018-10-21T20:15:46.712Z,18.27
2018-10-21T20:18:14.373Z,18.26
2018-10-21T20:20:41.981Z,18.26
2018-10-21T20:23:09.562Z,18.25
2018-10-21T20:25:37.210Z,18.26
2018-10-21T20:28:05.069Z,18.26
2018-10-21T20:30:32.674Z,18.25
2018-10-21T20:33:00.361Z,18.26
2018-10-21T20:35:27.937Z,18.26
2018-10-21T20:37:55.593Z,18.25
2018-10-21T20:40:23.221Z,18.25
2018-10-21T20:42:50.792Z,18.25
2018-10-21T20:45:18.411Z,18.26
2018-10-21T20:47:45.998Z,18.25
2018-10-21T20:50:13.603Z,18.26
2018-10-21T20:52:41.253Z,18.27
2018-10-21T20:55:08.814Z,18.27
2018-10-21T20:57:36.437Z,18.25
2018-10-21T21:00:04.121Z,18.26
2018-10-21T21:02:31.708Z,18.25
2018-10-21T21:04:59.359Z,18.25
2018-10-21T21:07:26.965Z,18.24
2018-10-21T21:09:54.571Z,18.25
2018-10-21T21:12:22.188Z,18.25
2018-10-21T21:14:49.854Z,18.25
2018-10-21T21:17:17.516Z,18.26
2018-10-21T21:19:45.168Z,18.25
2018-10-21T21:22:12.850Z,18.25
2018-10-21T21:24:40.395Z,18.25
2018-10-21T21:27:08.036Z,18.23
2018-10-21T21:29:35.717Z,18.23
2018-10-21T21:32:03.405Z,18.23
2018-10-21T21:34:31.044Z,18.22
2018-10-21T21:36:58.614Z,18.21
2018-10-21T21:39:26.240Z,18.22
2018-10-21T21:41:53.848Z,18.22
2018-10-21T21:44:21.513Z,18.22
2018-10-21T21:46:49.113Z,18.20
2018-10-21T21:49:16.675Z,18.21
2018-10-21T21:51:44.308Z,18.20
2018-10-21T21:54:12.983Z,18.22
2018-10-21T21:56:41.062Z,18.20
2018-10-21T21:59:08.905Z,18.20
2018-10-21T22:01:36.657Z,18.19
2018-10-21T22:04:04.476Z,18.19
2018-10-21T22:06:32.129Z,18.18
2018-10-21T22:08:59.790Z,18.18
2018-10-21T22:11:27.449Z,18.19
2018-10-21T22:13:55.078Z,18.18
2018-10-21T22:16:22.785Z,18.17
2018-10-21T22:18:50.416Z,18.18
2018-10-21T22:21:17.996Z,18.18
2018-10-21T22:23:45.625Z,18.16
2018-10-21T22:26:13.256Z,18.17
2018-10-21T22:28:40.812Z,18.16
2018-10-21T22:31:08.469Z,18.15
2018-10-21T22:33:36.096Z,18.14
2018-10-21T22:36:03.744Z,18.15
2018-10-21T22:38:31.381Z,18.15
2018-10-21T22:40:58.983Z,18.15
2018-10-21T22:43:26.692Z,18.16
2018-10-21T22:45:54.350Z,18.16
2018-10-21T22:48:21.966Z,18.15
2018-10-21T22:50:49.607Z,18.15
2018-10-21T22:53:17.239Z,18.15
2018-10-21T22:55:44.877Z,18.16
2018-10-21T22:58:12.526Z,18.16
2018-10-21T23:00:40.118Z,18.14
2018-10-21T23:03:07.683Z,18.12
2018-10-21T23:05:35.298Z,18.13
2018-10-21T23:08:02.906Z,18.14
2018-10-21T23:10:30.502Z,18.13
2018-10-21T23:12:58.289Z,18.14
2018-10-21T23:15:25.860Z,18.13
2018-10-21T23:17:53.513Z,18.13
2018-10-21T23:20:21.126Z,18.13
2018-10-21T23:22:48.723Z,18.14
2018-10-21T23:25:16.364Z,18.13
2018-10-21T23:27:43.998Z,18.13
2018-10-21T23:30:11.596Z,18.12
2018-10-21T23:32:39.271Z,18.12
2018-10-21T23:35:07.021Z,18.11
2018-10-21T23:37:34.656Z,18.13
2018-10-21T23:40:02.240Z,18.10
2018-10-21T23:42:29.925Z,18.12
2018-10-21T23:44:57.548Z,18.14
2018-10-21T23:47:25.169Z,18.14
2018-10-21T23:49:52.773Z,18.11
2018-10-21T23:52:20.493Z,18.10
2018-10-21T23:54:48.148Z,18.11
2018-10-21T23:57:15.780Z,18.12
2018-10-21T23:59:43.413Z,18.12
